Time;durP1;ratioP1;P1;durP2;ratioP2;P2;SDS_P1;SDS_P2;PMS_P1;PMS_P2;Temp;Humidity;BMP_temperature;BMP_pressure;BME280_temperature;BME280_humidity;BME280_pressure;Samples;Min_cycle;Max_cycle;Signal;HPM_P1;HPM_P2
2023/12/25 00:04:00;;;;;;;54.93;28.77;;;;;;;-143.21;70.44;72863.50;6106997;23;20168;-83
2023/12/25 00:17:15;;;;;;;82.43;41.37;;;;;;;-143.21;70.59;72879.38;6136017;23;20194;-83
2023/12/25 00:23:50;;;;;;;72.23;37.30;;;;;;;-143.21;71.81;72891.25;6171963;23;20569;-74
2023/12/25 00:33:22;;;;;;;;;;;;;;;;;;;;;
2023/12/25 00:40:04;;;;;;;83.33;42.27;;;;;;;-143.21;71.91;72909.13;6001474;23;20377;-73
2023/12/25 00:55:39;;;;;;;95.50;48.80;;;;;;;-143.21;72.57;72926.97;6176157;23;20175;-77
2023/12/25 00:58:58;;;;;;;110.60;52.57;;;;;;;-143.21;72.67;72928.94;6143376;23;20237;-85
2023/12/25 01:13:59;;;;;;;97.90;45.13;;;;;;;-143.21;77.87;73053.91;6175392;23;20618;-83
2023/12/25 01:41:20;;;;;;;79.43;40.97;;;;;;;-143.21;80.69;73079.69;5996596;23;20237;-83
2023/12/25 01:44:25;;;;;;;83.30;41.97;;;;;;;-143.21;79.89;73049.94;6069372;23;20629;-83
2023/12/25 01:57:16;;;;;;;;;;;;;;;;;;;;;
2023/12/25 02:50:26;;;;;;;51.17;25.17;;;;;;;-143.21;80.18;73067.78;5983692;23;20182;-86
2023/12/25 02:59:36;;;;;;;50.73;25.10;;;;;;;-143.21;78.51;73085.66;6007023;23;20180;-84
2023/12/25 03:06:05;;;;;;;50.93;23.53;;;;;;;-143.21;81.83;73129.28;6147054;23;20688;-83
2023/12/25 03:10:06;;;;;;;;;;;;;;;;;;;;;
2023/12/25 03:19:22;;;;;;;38.87;20.40;;;;;;;-143.21;79.74;73081.69;6103231;23;20196;-85
2023/12/25 03:52:13;;;;;;;44.13;21.40;;;;;;;-143.21;81.84;73194.75;5886097;24;20174;-83
2023/12/25 04:13:46;;;;;;;;;;;;;;;;;;;;;
2023/12/25 04:20:26;;;;;;;;;;;;;;;;;;;;;
2023/12/25 04:37:12;;;;;;;23.50;12.30;;;;;;;-143.21;77.89;73091.59;6058477;23;20197;-85
2023/12/25 04:40:36;;;;;;;25.47;11.77;;;;;;;-143.21;77.00;73109.44;6002430;23;20171;-85
2023/12/25 04:46:31;;;;;;;27.50;13.77;;;;;;;-143.21;79.64;73163.00;6038158;23;20232;-84
2023/12/25 04:48:58;;;;;;;27.77;14.80;;;;;;;-143.21;79.13;73147.13;6162529;23;20170;-82
2023/12/25 04:51:25;;;;;;;30.80;13.23;;;;;;;-143.21;79.51;73147.13;6178985;23;20175;-84
2023/12/25 04:53:51;;;;;;;28.23;13.80;;;;;;;-143.21;79.17;73139.22;6181190;23;20171;-84
2023/12/25 04:56:18;;;;;;;23.50;12.43;;;;;;;-143.21;78.52;73133.25;6180795;23;20528;-82
2023/12/25 04:58:46;;;;;;;27.20;12.40;;;;;;;-143.21;78.29;73145.16;6180480;23;20174;-81
2023/12/25 05:01:13;;;;;;;25.30;12.50;;;;;;;-143.21;80.14;73163.00;6179673;23;20174;-81
2023/12/25 05:03:40;;;;;;;24.30;12.87;;;;;;;-143.21;80.26;73170.94;6179205;23;20193;-80
2023/12/25 05:06:07;;;;;;;27.90;12.80;;;;;;;-143.21;79.93;73155.06;6181596;23;20198;-81
2023/12/25 05:08:33;;;;;;;24.53;12.30;;;;;;;-143.21;79.24;73127.31;6180547;23;20174;-81
2023/12/25 05:11:00;;;;;;;36.17;12.37;;;;;;;-143.21;79.64;73121.34;6179971;23;20175;-81
2023/12/25 05:13:27;;;;;;;24.00;12.47;;;;;;;-143.21;79.32;73107.47;6180325;23;20171;-80
2023/12/25 05:15:55;;;;;;;25.13;11.80;;;;;;;-143.21;78.93;73105.47;6181723;23;20174;-80
2023/12/25 05:18:22;;;;;;;26.43;12.93;;;;;;;-143.21;77.97;73105.47;6180825;23;20673;-82
2023/12/25 05:20:49;;;;;;;30.13;12.90;;;;;;;-143.21;77.61;73125.31;6180857;23;20167;-81
2023/12/25 05:23:16;;;;;;;26.53;15.07;;;;;;;-143.21;78.50;73143.16;6180770;23;20171;-82
2023/12/25 05:25:43;;;;;;;29.23;15.40;;;;;;;-143.21;77.98;73129.28;6176407;23;20188;-79
2023/12/25 05:28:10;;;;;;;36.83;18.77;;;;;;;-143.21;77.63;73129.28;6161082;23;20787;-81
2023/12/25 05:30:37;;;;;;;37.03;18.87;;;;;;;-143.21;77.91;73131.28;6177924;23;20170;-80
2023/12/25 05:33:06;;;;;;;29.93;16.70;;;;;;;-143.21;77.35;73137.22;6178121;23;21184;-81
2023/12/25 05:35:32;;;;;;;38.67;18.57;;;;;;;-143.21;77.80;73125.31;6178904;23;20895;-81
2023/12/25 05:37:59;;;;;;;40.23;17.73;;;;;;;-143.21;77.86;73127.31;6181587;23;20169;-79
2023/12/25 05:40:26;;;;;;;29.03;15.03;;;;;;;-143.21;77.43;73115.41;6179319;23;20539;-80
2023/12/25 05:42:53;;;;;;;32.27;15.67;;;;;;;-143.21;77.45;73133.25;6179087;23;20167;-82
2023/12/25 05:45:21;;;;;;;33.27;17.47;;;;;;;-143.21;77.42;73133.25;6181049;23;20575;-84
2023/12/25 05:47:48;;;;;;;35.57;17.10;;;;;;;-143.21;77.28;73159.03;6180705;23;20651;-84
2023/12/25 05:50:17;;;;;;;43.10;20.10;;;;;;;-143.21;77.33;73141.19;6180983;23;20195;-84
2023/12/25 05:52:44;;;;;;;29.53;16.27;;;;;;;-143.21;77.16;73137.22;6180254;23;20171;-86
2023/12/25 05:55:11;;;;;;;33.07;17.10;;;;;;;-143.21;77.98;73143.16;6179874;23;20163;-81
2023/12/25 05:57:37;;;;;;;28.10;14.73;;;;;;;-143.21;77.49;73180.88;6179554;23;20163;-80
2023/12/25 06:00:05;;;;;;;31.40;14.23;;;;;;;-143.21;78.83;73206.66;6181937;23;20571;-81
2023/12/25 06:02:32;;;;;;;26.50;13.83;;;;;;;-143.21;81.08;73236.41;6179935;23;20231;-82
2023/12/25 06:04:59;;;;;;;33.77;16.87;;;;;;;-143.21;81.47;73224.50;6178845;23;20169;-80
2023/12/25 06:07:27;;;;;;;29.43;15.00;;;;;;;-143.21;80.65;73224.50;6178022;23;20197;-79
2023/12/25 06:09:54;;;;;;;31.57;16.30;;;;;;;-143.21;80.99;73238.38;6179567;23;20163;-79
2023/12/25 06:12:21;;;;;;;35.63;17.67;;;;;;;-143.21;80.68;73234.41;6179611;23;20174;-80
2023/12/25 06:14:47;;;;;;;27.17;14.90;;;;;;;-143.21;80.60;73234.41;6178404;23;20183;-79
2023/12/25 06:17:14;;;;;;;32.53;15.87;;;;;;;-143.21;80.52;73228.47;6178082;23;20619;-79
2023/12/25 06:19:41;;;;;;;26.23;15.27;;;;;;;-143.21;80.69;73216.56;6176455;23;20175;-78
2023/12/25 06:22:08;;;;;;;32.60;16.30;;;;;;;-143.21;79.78;73210.63;6180142;23;20166;-79
2023/12/25 06:24:36;;;;;;;28.63;15.80;;;;;;;-143.21;79.63;73208.63;6177772;23;20175;-82
2023/12/25 06:27:03;;;;;;;26.70;14.13;;;;;;;-143.21;79.09;73200.69;6178575;23;20660;-80
2023/12/25 06:29:30;;;;;;;30.00;13.83;;;;;;;-143.21;79.39;73210.63;6178747;23;20173;-80
2023/12/25 06:31:57;;;;;;;25.97;12.60;;;;;;;-143.21;78.66;73208.63;6180335;23;20642;-80
2023/12/25 06:34:24;;;;;;;26.40;12.97;;;;;;;-143.21;77.91;73214.59;6180512;23;20197;-81
2023/12/25 06:36:51;;;;;;;24.37;11.00;;;;;;;-143.21;78.34;73220.53;6179963;23;20517;-80
2023/12/25 06:39:18;;;;;;;22.63;10.63;;;;;;;-143.21;78.72;73212.59;6180381;23;20167;-79
2023/12/25 06:41:46;;;;;;;18.43;8.87;;;;;;;-143.21;79.01;73208.63;6179160;23;20248;-79
2023/12/25 06:44:13;;;;;;;22.00;10.30;;;;;;;-143.21;79.16;73212.59;6180352;23;20186;-79
2023/12/25 06:46:40;;;;;;;21.40;9.90;;;;;;;-143.21;78.67;73226.50;6178220;23;20200;-81
2023/12/25 06:49:07;;;;;;;24.93;12.17;;;;;;;-143.21;78.95;73244.34;6177047;23;20210;-80
2023/12/25 06:51:37;;;;;;;22.47;10.77;;;;;;;-143.21;80.60;73266.16;6178340;23;20568;-80
2023/12/25 06:54:04;;;;;;;24.93;11.77;;;;;;;-143.21;81.21;73250.28;6168576;23;20177;-79
2023/12/25 06:56:42;;;;;;;27.53;11.67;;;;;;;-143.21;80.87;73236.41;6179159;23;20223;-80
2023/12/25 06:59:10;;;;;;;22.00;11.27;;;;;;;-143.21;80.94;73228.47;6177680;23;20162;-80
2023/12/25 07:01:37;;;;;;;24.47;11.87;;;;;;;-143.21;80.35;73214.59;6179427;23;20497;-80
2023/12/25 07:04:08;;;;;;;20.97;10.90;;;;;;;-143.21;79.02;73216.56;6178990;23;20175;-80
2023/12/25 07:06:34;;;;;;;21.97;11.63;;;;;;;-143.21;79.30;73216.56;6180980;23;20248;-83
2023/12/25 07:09:01;;;;;;;23.57;11.27;;;;;;;-143.21;79.81;73228.47;6179529;23;20170;-85
2023/12/25 07:11:28;;;;;;;21.13;11.67;;;;;;;-143.21;79.84;73222.53;6179789;23;20168;-79
2023/12/25 07:13:57;;;;;;;20.97;11.50;;;;;;;-143.21;80.26;73216.56;6180860;23;20178;-80
2023/12/25 07:16:25;;;;;;;20.50;10.67;;;;;;;-143.21;79.58;73194.75;6181817;23;20173;-81
2023/12/25 07:18:54;;;;;;;22.97;11.63;;;;;;;-143.21;79.63;73200.69;6180530;23;20692;-79
2023/12/25 07:21:21;;;;;;;16.97;10.70;;;;;;;-143.21;79.03;73178.88;6180539;23;20574;-79
2023/12/25 07:23:48;;;;;;;19.80;10.40;;;;;;;-143.21;77.03;73157.06;6181866;23;20175;-83
2023/12/25 07:26:17;;;;;;;20.33;10.73;;;;;;;-143.21;76.69;73163.00;6186962;23;20178;-82
2023/12/25 07:28:46;;;;;;;24.83;11.40;;;;;;;-143.21;77.77;73178.88;6186029;23;20183;-84
2023/12/25 07:31:14;;;;;;;19.10;10.57;;;;;;;-143.21;77.66;73176.91;6181578;23;20175;-83
2023/12/25 07:33:43;;;;;;;25.13;11.10;;;;;;;-143.21;78.12;73176.91;6181023;23;20175;-82
2023/12/25 07:36:10;;;;;;;26.03;10.53;;;;;;;-143.21;77.79;73157.06;6181272;23;20275;-80
2023/12/25 07:38:38;;;;;;;20.53;10.20;;;;;;;-143.21;77.62;73147.13;6182135;23;20175;-83
2023/12/25 07:41:08;;;;;;;21.67;10.00;;;;;;;-143.21;77.17;73133.25;6182029;23;20239;-83
2023/12/25 07:43:35;;;;;;;17.53;9.87;;;;;;;-143.21;76.76;73133.25;6181301;23;20591;-82
2023/12/25 07:46:05;;;;;;;16.17;9.37;;;;;;;-143.21;75.49;73127.31;6180880;23;20213;-77
2023/12/25 07:48:32;;;;;;;16.53;7.80;;;;;;;-143.21;74.73;73105.47;6179149;23;20199;-81
2023/12/25 07:51:00;;;;;;;16.67;8.33;;;;;;;-143.21;74.33;73109.44;6180250;23;20169;-80
2023/12/25 07:53:27;;;;;;;17.57;8.63;;;;;;;-143.21;74.27;73105.47;6178887;23;20623;-78
2023/12/25 07:55:53;;;;;;;17.77;8.53;;;;;;;-143.21;74.33;73091.59;6180429;23;20166;-76
2023/12/25 07:58:20;;;;;;;16.77;8.67;;;;;;;-143.21;73.87;73077.72;6179994;23;20163;-80
2023/12/25 08:00:48;;;;;;;17.43;8.43;;;;;;;-143.21;72.81;73053.91;6181617;23;20178;-80
2023/12/25 08:03:15;;;;;;;16.10;8.63;;;;;;;-143.21;72.55;73051.94;6182067;23;20174;-80
2023/12/25 08:05:41;;;;;;;35.00;15.83;;;;;;;-143.21;72.12;73022.19;6180865;23;20171;-81
2023/12/25 08:08:10;;;;;;;31.40;16.23;;;;;;;-143.21;71.80;73018.22;6181797;23;20257;-80
2023/12/25 08:10:38;;;;;;;38.40;18.00;;;;;;;-143.21;70.81;73000.34;6180909;23;20179;-80
2023/12/25 08:13:05;;;;;;;37.90;18.53;;;;;;;-143.21;70.62;72986.47;6182056;23;20531;-82
2023/12/25 08:15:34;;;;;;;27.70;13.20;;;;;;;-143.21;69.98;72984.50;6180265;23;20167;-83
2023/12/25 08:18:00;;;;;;;27.93;13.70;;;;;;;-143.21;69.89;72988.47;6178702;23;20696;-80
2023/12/25 08:20:27;;;;;;;28.37;13.43;;;;;;;-143.21;69.66;72982.50;6181246;23;20167;-84
2023/12/25 08:22:54;;;;;;;29.80;14.60;;;;;;;-143.21;68.67;72952.75;6180621;23;20171;-81
2023/12/25 08:25:22;;;;;;;27.67;13.60;;;;;;;-143.21;68.62;72942.84;6180492;23;20225;-77
2023/12/25 08:27:49;;;;;;;22.63;12.57;;;;;;;-143.21;67.63;72924.97;6178708;23;20205;-78
2023/12/25 08:30:16;;;;;;;23.10;12.90;;;;;;;-143.21;67.48;72923.00;6179257;23;20178;-80
2023/12/25 08:32:43;;;;;;;26.73;12.87;;;;;;;-143.21;67.17;72917.06;6179093;23;20807;-85
2023/12/25 08:35:10;;;;;;;26.73;11.60;;;;;;;-143.21;67.68;72919.03;6179614;23;20202;-87
2023/12/25 08:37:37;;;;;;;25.10;11.47;;;;;;;-143.21;67.55;72917.06;6186954;23;20213;-87
2023/12/25 08:40:05;;;;;;;28.17;11.57;;;;;;;-143.21;67.29;72915.06;6167832;23;20173;-75
2023/12/25 08:42:33;;;;;;;23.33;10.90;;;;;;;-143.21;66.77;72897.22;6178747;23;20189;-85
2023/12/25 08:45:00;;;;;;;16.93;9.67;;;;;;;-143.21;65.80;72875.41;6181163;23;20166;-84
2023/12/25 08:47:27;;;;;;;17.93;8.90;;;;;;;-143.21;65.72;72861.50;6182221;23;20194;-84
2023/12/25 08:49:54;;;;;;;15.73;8.07;;;;;;;-143.21;66.11;72859.53;6181338;23;20195;-80
2023/12/25 08:52:21;;;;;;;25.67;9.73;;;;;;;-143.21;65.70;72849.59;6180363;23;20163;-79
2023/12/25 08:54:48;;;;;;;19.70;8.37;;;;;;;-143.21;63.92;72827.78;6179744;23;20915;-79
2023/12/25 08:57:15;;;;;;;18.27;7.90;;;;;;;-143.21;63.71;72813.91;6181647;23;20171;-80
2023/12/25 08:59:43;;;;;;;14.10;7.70;;;;;;;-143.21;63.36;72792.09;6179767;23;20167;-81
2023/12/25 09:02:10;;;;;;;17.17;8.37;;;;;;;-143.21;63.11;72780.19;6179719;23;20175;-80
2023/12/25 09:04:37;;;;;;;19.40;7.80;;;;;;;-143.21;64.04;72782.16;6179541;23;20178;-80
2023/12/25 09:07:04;;;;;;;19.37;8.33;;;;;;;-143.21;63.64;72784.16;6169444;23;20167;-80
2023/12/25 09:09:31;;;;;;;14.07;6.73;;;;;;;-143.21;62.59;72774.25;6179650;23;20171;-81
2023/12/25 09:11:57;;;;;;;14.97;6.17;;;;;;;-143.21;61.83;72760.34;6179852;23;20562;-79
2023/12/25 09:14:24;;;;;;;12.30;6.20;;;;;;;-143.21;61.69;72762.34;6179744;23;20167;-80
2023/12/25 09:16:53;;;;;;;11.90;6.00;;;;;;;-143.21;60.31;72738.53;6179721;23;20186;-80
2023/12/25 09:19:19;;;;;;;11.83;6.17;;;;;;;-143.21;59.56;72714.72;6181554;23;20155;-80
2023/12/25 09:21:46;;;;;;;18.23;6.43;;;;;;;-143.21;59.22;72700.84;6178687;23;21116;-79
2023/12/25 09:24:13;;;;;;;16.13;6.30;;;;;;;-143.21;59.45;72696.88;6178239;23;20856;-80
2023/12/25 09:26:40;;;;;;;15.30;6.70;;;;;;;-143.21;59.55;72700.84;6178507;23;20181;-80
2023/12/25 09:29:09;;;;;;;21.10;6.97;;;;;;;-143.21;58.92;72692.91;6180705;23;20202;-80
2023/12/25 09:31:36;;;;;;;13.00;6.13;;;;;;;-143.21;58.18;72673.09;6179180;23;20170;-80
2023/12/25 09:34:04;;;;;;;18.93;6.57;;;;;;;-143.21;57.85;72661.19;6179669;23;20194;-80
2023/12/25 09:36:31;;;;;;;12.00;5.70;;;;;;;-143.21;57.13;72641.34;6179470;23;20221;-81
2023/12/25 09:38:58;;;;;;;17.03;6.70;;;;;;;-143.21;57.24;72633.41;6180424;23;20178;-79
2023/12/25 09:41:26;;;;;;;11.90;6.57;;;;;;;-143.21;56.95;72625.47;6180698;23;20166;-80
2023/12/25 09:43:55;;;;;;;14.17;6.83;;;;;;;-143.21;56.20;72609.63;6179438;23;20163;-80
2023/12/25 09:46:24;;;;;;;15.90;7.07;;;;;;;-143.21;56.28;72601.69;6178971;23;20178;-79
2023/12/25 09:48:51;;;;;;;16.27;7.50;;;;;;;-143.21;56.76;72601.69;6178332;23;20198;-79
2023/12/25 09:51:21;;;;;;;19.60;9.87;;;;;;;-143.21;56.34;72583.84;6181740;23;20174;-80
2023/12/25 09:53:47;;;;;;;15.03;8.17;;;;;;;-143.21;55.66;72538.22;6179939;23;20586;-79
2023/12/25 09:56:17;;;;;;;21.20;9.17;;;;;;;-143.21;55.95;72488.63;6179478;23;20253;-80
2023/12/25 09:58:45;;;;;;;18.83;7.93;;;;;;;-143.21;54.29;72339.91;6179977;23;20198;-79
2023/12/25 10:01:13;;;;;;;13.90;7.33;;;;;;;-143.21;47.77;72105.91;6181447;23;20167;-84
2023/12/25 10:03:44;;;;;;;16.17;7.83;;;;;;;-143.21;43.06;71844.16;6181977;23;20237;-85
2023/12/25 10:06:11;;;;;;;17.20;7.50;;;;;;;-143.21;38.23;71576.47;6181281;23;20178;-84
2023/12/25 10:08:39;;;;;;;22.43;9.47;;;;;;;-143.21;34.53;71336.56;6180849;23;20186;-83
2023/12/25 10:11:12;;;;;;;19.27;7.80;;;;;;;-143.21;32.56;71209.69;6181685;23;20163;-83
2023/12/25 10:13:39;;;;;;;17.63;7.72;;;;;;;-143.21;31.15;71062.97;6182039;23;20574;-82
2023/12/25 10:16:07;;;;;;;13.30;6.93;;;;;;;-143.21;29.69;70965.84;6181446;23;20215;-83
2023/12/25 10:18:34;;;;;;;15.55;8.30;;;;;;;-143.21;28.81;70872.66;6180778;23;20213;-84
2023/12/25 10:21:01;;;;;;;14.60;7.07;;;;;;;-143.21;28.06;70803.28;6180660;23;20190;-83
2023/12/25 10:23:30;;;;;;;12.30;7.20;;;;;;;-143.21;27.35;70722.03;6180810;23;20764;-83
2023/12/25 10:25:59;;;;;;;12.20;7.10;;;;;;;-143.21;26.97;70660.56;6181909;23;20251;-84
2023/12/25 10:28:29;;;;;;;25.40;10.98;;;;;;;-143.21;26.39;70666.50;6182201;23;20197;-84
2023/12/25 10:31:00;;;;;;;25.02;11.68;;;;;;;-143.21;26.36;70670.47;6184694;23;20163;-84
2023/12/25 10:33:27;;;;;;;34.00;8.10;;;;;;;-143.21;26.24;70656.59;6183389;23;20171;-85
2023/12/25 10:36:03;;;;;;;17.48;9.05;;;;;;;-143.21;25.87;70607.06;6182662;23;20177;-84
2023/12/25 10:38:32;;;;;;;16.55;8.10;;;;;;;-143.21;25.65;70611.00;6182797;23;20172;-84
2023/12/25 10:41:21;;;;;;;15.65;7.80;;;;;;;-143.21;25.68;70654.63;6181069;23;20167;-84
2023/12/25 10:43:52;;;;;;;13.75;6.22;;;;;;;-143.21;25.90;70640.75;6180778;23;20622;-83
2023/12/25 10:46:21;;;;;;;14.80;6.60;;;;;;;-143.21;25.32;70601.09;6181240;23;20561;-84
2023/12/25 10:48:50;;;;;;;14.20;6.47;;;;;;;-143.21;25.45;70607.06;6183346;23;20194;-83
2023/12/25 10:51:22;;;;;;;19.13;6.93;;;;;;;-143.21;25.15;70557.50;6184183;23;20229;-84
2023/12/25 10:53:50;;;;;;;14.70;6.88;;;;;;;-143.21;25.30;70541.63;6182757;23;20166;-83
2023/12/25 10:56:21;;;;;;;13.00;6.03;;;;;;;-143.21;24.84;70500.00;6182270;23;20171;-84
2023/12/25 10:58:51;;;;;;;24.25;9.73;;;;;;;-143.21;25.08;70521.81;6180428;23;20209;-84
2023/12/25 11:01:23;;;;;;;16.58;6.53;;;;;;;-143.21;25.39;70531.72;6181638;23;20185;-83
2023/12/25 11:03:50;;;;;;;14.07;6.60;;;;;;;-143.21;25.02;70486.16;6183391;23;20159;-84
2023/12/25 11:06:18;;;;;;;15.13;6.25;;;;;;;-143.21;24.83;70478.22;6183114;23;20650;-84
2023/12/25 11:08:45;;;;;;;13.23;6.35;;;;;;;-143.21;24.80;70434.59;6182687;23;20721;-85
2023/12/25 11:11:13;;;;;;;12.30;5.75;;;;;;;-143.21;24.58;70402.91;6181075;23;20167;-79
2023/12/25 11:13:42;;;;;;;12.02;6.07;;;;;;;-143.21;24.35;70396.94;6182023;23;20572;-78
2023/12/25 11:16:10;;;;;;;14.02;5.95;;;;;;;-143.21;24.32;70468.31;6180243;23;20649;-78
2023/12/25 11:18:38;;;;;;;13.93;6.47;;;;;;;-143.21;24.27;70438.56;6179774;23;20579;-78
2023/12/25 11:21:07;;;;;;;14.05;5.90;;;;;;;-143.21;24.22;70379.09;6179480;23;20167;-78
2023/12/25 11:23:36;;;;;;;8.75;5.30;;;;;;;-143.21;24.00;70323.63;6180178;23;20167;-79
2023/12/25 11:26:05;;;;;;;16.50;6.28;;;;;;;-143.21;23.75;70309.75;6169774;23;20627;-78
2023/12/25 11:28:35;;;;;;;12.00;5.57;;;;;;;-143.21;23.80;70280.00;6179625;23;20195;-78
2023/12/25 11:31:05;;;;;;;10.93;5.75;;;;;;;-143.21;23.67;70268.13;6179760;23;20171;-78
2023/12/25 11:33:42;;;;;;;11.45;5.15;;;;;;;-143.21;23.53;70240.38;6179186;23;20171;-78
2023/12/25 11:36:12;;;;;;;12.73;5.47;;;;;;;-143.21;23.53;70248.28;6180121;23;20630;-78
2023/12/25 11:38:42;;;;;;;10.25;5.22;;;;;;;-143.21;23.69;70244.34;6180140;23;20174;-78
2023/12/25 11:41:16;;;;;;;12.30;5.25;;;;;;;-143.21;23.46;70270.09;6179319;23;20939;-81
2023/12/25 11:43:43;;;;;;;29.25;15.10;;;;;;;-143.21;23.58;70250.28;6182323;23;20646;-81
2023/12/25 11:46:16;;;;;;;13.18;6.47;;;;;;;-143.21;23.58;70248.28;6182192;23;20170;-81
2023/12/25 11:48:44;;;;;;;19.20;5.93;;;;;;;-143.21;23.35;70256.22;6182767;23;20221;-81
2023/12/25 11:51:20;;;;;;;16.83;5.57;;;;;;;-143.21;23.63;70262.19;6183102;23;20163;-79
2023/12/25 11:53:48;;;;;;;15.02;5.75;;;;;;;-143.21;23.59;70270.09;6187027;23;20178;-82
2023/12/25 11:56:17;;;;;;;11.40;5.65;;;;;;;-143.21;23.46;70264.16;6182588;23;20186;-82
2023/12/25 11:58:44;;;;;;;18.55;6.43;;;;;;;-143.21;23.38;70256.22;6180382;23;20217;-80
2023/12/25 12:01:15;;;;;;;12.10;5.82;;;;;;;-143.21;23.38;70262.19;6183174;23;20630;-81
2023/12/25 12:03:42;;;;;;;50.17;20.70;;;;;;;-143.21;23.53;70270.09;6181149;23;20186;-79
2023/12/25 12:06:09;;;;;;;17.77;7.45;;;;;;;-143.21;23.25;70276.03;6181084;23;20198;-80
2023/12/25 12:08:36;;;;;;;11.90;5.50;;;;;;;-143.21;23.52;70293.88;6179966;23;20222;-81
2023/12/25 12:11:05;;;;;;;16.05;5.90;;;;;;;-143.21;23.16;70285.97;6181732;23;20170;-81
2023/12/25 12:13:32;;;;;;;10.95;5.32;;;;;;;-143.21;23.58;70319.66;6181428;23;20171;-80
2023/12/25 12:15:58;;;;;;;12.63;4.80;;;;;;;-143.21;23.76;70341.44;6180021;23;20175;-80
2023/12/25 12:18:27;;;;;;;18.20;5.45;;;;;;;-143.21;23.67;70359.28;6180335;23;20510;-82
2023/12/25 12:20:54;;;;;;;13.50;5.55;;;;;;;-143.21;23.84;70351.38;6181141;23;20171;-85
2023/12/25 12:23:21;;;;;;;16.40;5.63;;;;;;;-143.21;23.77;70353.34;6182542;23;20261;-82
2023/12/25 12:25:47;;;;;;;11.30;5.28;;;;;;;-143.21;23.85;70355.31;6179826;23;20249;-81
2023/12/25 12:28:16;;;;;;;10.73;5.70;;;;;;;-143.21;23.59;70392.97;6178756;23;20764;-79
2023/12/25 12:30:43;;;;;;;7.97;5.03;;;;;;;-143.21;23.79;70418.75;6177953;23;20277;-84
2023/12/25 12:33:13;;;;;;;13.98;4.93;;;;;;;-143.21;23.93;70426.69;6179612;23;20234;-80
2023/12/25 12:35:41;;;;;;;15.85;5.90;;;;;;;-143.21;23.82;70482.19;6180699;23;20170;-80
2023/12/25 12:38:11;;;;;;;10.05;5.13;;;;;;;-143.21;24.00;70513.88;6179010;23;20245;-81
2023/12/25 12:40:40;;;;;;;12.18;5.20;;;;;;;-143.21;24.42;70517.84;6180756;23;20175;-76
2023/12/25 12:43:06;;;;;;;12.90;5.50;;;;;;;-143.21;24.32;70561.47;6179628;23;20654;-80
2023/12/25 12:45:33;;;;;;;9.48;4.85;;;;;;;-143.21;24.56;70607.06;6181924;23;20229;-79
2023/12/25 12:48:01;;;;;;;14.65;5.50;;;;;;;-143.21;24.35;70632.81;6179776;23;20178;-81
2023/12/25 12:50:36;;;;;;;14.25;5.25;;;;;;;-143.21;24.63;70628.84;6178684;23;20171;-78
2023/12/25 12:53:05;;;;;;;10.07;4.80;;;;;;;-143.21;24.61;70614.97;6179805;23;20621;-80
2023/12/25 12:55:36;;;;;;;15.73;5.30;;;;;;;-143.21;24.54;70607.06;6179587;23;20171;-78
2023/12/25 12:58:03;;;;;;;16.67;5.53;;;;;;;-143.21;24.74;70607.06;6182133;23;20225;-80
2023/12/25 13:00:29;;;;;;;11.73;4.75;;;;;;;-143.21;24.61;70618.94;6180034;23;20468;-79
2023/12/25 13:02:58;;;;;;;14.40;5.18;;;;;;;-143.21;24.63;70628.84;6181076;23;20171;-81
2023/12/25 13:05:25;;;;;;;15.60;5.50;;;;;;;-143.21;24.87;70638.75;6182981;23;20166;-88
2023/12/25 13:07:52;;;;;;;9.15;4.85;;;;;;;-143.21;25.21;70640.75;6185585;23;20603;-80
2023/12/25 13:10:20;;;;;;;13.35;5.35;;;;;;;-143.21;24.87;70646.69;6180303;23;20191;-84
2023/12/25 13:12:47;;;;;;;11.45;4.72;;;;;;;-143.21;24.95;70662.56;6181043;23;20171;-83
2023/12/25 13:15:15;;;;;;;8.70;4.93;;;;;;;-143.21;24.90;70666.50;6181615;23;20526;-82
2023/12/25 13:17:42;;;;;;;11.90;4.97;;;;;;;-143.21;25.19;70660.56;6181094;23;20198;-84
2023/12/25 13:20:10;;;;;;;11.90;5.20;;;;;;;-143.21;24.90;70644.72;6180007;23;20171;-83
2023/12/25 13:22:37;;;;;;;12.95;5.00;;;;;;;-143.21;24.82;70642.72;6178703;23;20178;-81
2023/12/25 13:25:05;;;;;;;12.60;5.20;;;;;;;-143.21;24.71;70654.63;6178134;23;20167;-81
2023/12/25 13:27:33;;;;;;;9.88;5.38;;;;;;;-143.21;24.66;70670.47;6178601;23;20194;-81
2023/12/25 13:30:00;;;;;;;12.20;5.35;;;;;;;-143.21;24.74;70680.38;6179485;23;20206;-81
2023/12/25 13:32:27;;;;;;;9.95;5.00;;;;;;;-143.21;24.87;70682.38;6178471;23;20520;-81
2023/12/25 13:34:54;;;;;;;9.75;5.43;;;;;;;-143.21;24.91;70688.31;6177631;23;20198;-81
2023/12/25 13:37:21;;;;;;;14.98;5.10;;;;;;;-143.21;25.16;70714.09;6178343;23;20171;-85
2023/12/25 13:39:48;;;;;;;9.73;4.95;;;;;;;-143.21;25.49;70769.59;6178408;23;20503;-82
2023/12/25 13:42:15;;;;;;;12.25;5.22;;;;;;;-143.21;25.82;70868.72;6179871;23;20178;-83
2023/12/25 13:44:44;;;;;;;12.80;5.15;;;;;;;-143.21;26.42;70965.84;6177839;23;20712;-82
2023/12/25 13:47:10;;;;;;;14.77;5.60;;;;;;;-143.21;27.10;71088.75;6178106;23;20521;-81
2023/12/25 13:49:38;;;;;;;19.00;5.90;;;;;;;-143.21;27.81;71201.75;6177946;23;20221;-80
2023/12/25 13:52:05;;;;;;;13.68;5.53;;;;;;;-143.21;28.52;71296.91;6180856;23;20225;-75
2023/12/25 13:54:32;;;;;;;10.68;5.60;;;;;;;-143.21;29.28;71376.22;6178694;23;20167;-84
2023/12/25 13:57:02;;;;;;;10.60;4.90;;;;;;;-143.21;29.86;71433.72;6178330;23;20177;-85
2023/12/25 13:59:29;;;;;;;10.52;5.13;;;;;;;-143.21;30.36;71485.25;6179743;23;20171;-79
2023/12/25 14:01:57;;;;;;;11.25;5.35;;;;;;;-143.21;30.92;71526.91;6179655;23;20495;-82
2023/12/25 14:04:24;;;;;;;13.20;6.03;;;;;;;-143.21;31.12;71560.59;6181018;23;20194;-80
2023/12/25 14:06:54;;;;;;;14.65;6.30;;;;;;;-143.21;31.57;71602.25;6178101;23;20174;-81
2023/12/25 14:09:21;;;;;;;15.85;6.40;;;;;;;-143.21;31.98;71610.16;6178074;23;20542;-81
2023/12/25 14:11:48;;;;;;;20.65;7.40;;;;;;;-143.21;32.28;71651.81;6177405;23;20214;-81
2023/12/25 14:14:15;;;;;;;14.50;6.95;;;;;;;-143.21;33.34;71685.50;6179675;23;20175;-80
2023/12/25 14:16:42;;;;;;;17.33;7.07;;;;;;;-143.21;33.90;71723.19;6177251;23;20227;-80
2023/12/25 14:19:11;;;;;;;14.80;6.90;;;;;;;-143.21;34.45;71745.00;6177006;23;20163;-82
2023/12/25 14:21:38;;;;;;;18.10;7.70;;;;;;;-143.21;34.48;71766.81;6178542;23;20170;-82
2023/12/25 14:24:05;;;;;;;18.08;7.85;;;;;;;-143.21;35.03;71790.59;6179264;23;20568;-80
2023/12/25 14:26:33;;;;;;;21.25;9.07;;;;;;;-143.21;35.23;71814.41;6179916;23;20238;-81
2023/12/25 14:29:00;;;;;;;19.15;8.20;;;;;;;-143.21;35.42;71834.22;6177438;23;20198;-81
2023/12/25 14:31:27;;;;;;;15.48;7.32;;;;;;;-143.21;35.74;71840.19;6177527;23;20211;-78
2023/12/25 14:33:57;;;;;;;15.30;7.68;;;;;;;-143.21;35.96;71852.06;6179031;23;20177;-81
2023/12/25 14:36:26;;;;;;;24.70;7.97;;;;;;;-143.21;36.27;71879.84;6181375;23;20690;-81
2023/12/25 14:38:54;;;;;;;19.73;8.83;;;;;;;-143.21;36.40;71901.66;6178270;23;20241;-81
2023/12/25 14:41:20;;;;;;;15.97;8.90;;;;;;;-143.21;36.71;71903.63;6178760;23;20580;-80
2023/12/25 14:43:47;;;;;;;22.67;7.30;;;;;;;-143.21;36.57;71919.50;6178905;23;20171;-81
2023/12/25 14:46:14;;;;;;;21.10;8.33;;;;;;;-143.21;36.92;71929.41;6176662;23;20387;-80
2023/12/25 14:48:44;;;;;;;24.23;10.20;;;;;;;-143.21;37.78;71945.28;6178957;23;20167;-82
2023/12/25 14:51:11;;;;;;;17.67;8.50;;;;;;;-143.21;37.94;71965.09;6177443;23;20190;-79
2023/12/25 14:53:39;;;;;;;22.40;9.43;;;;;;;-143.21;38.47;71982.94;6178667;23;20171;-82
2023/12/25 14:56:06;;;;;;;28.30;11.33;;;;;;;-143.21;38.63;71986.91;6178511;23;20185;-81
2023/12/25 14:58:33;;;;;;;28.33;12.00;;;;;;;-143.21;39.25;72004.75;6182331;23;20198;-81
2023/12/25 15:01:01;;;;;;;22.67;10.97;;;;;;;-143.21;39.37;72014.69;6179268;23;20167;-84
2023/12/25 15:03:28;;;;;;;28.50;11.63;;;;;;;-143.21;40.39;72036.50;6177191;23;20162;-84
2023/12/25 15:05:55;;;;;;;27.97;12.60;;;;;;;-143.21;40.60;72072.19;6178547;23;20171;-83
2023/12/25 15:08:27;;;;;;;29.20;13.37;;;;;;;-143.21;41.44;72086.06;6182893;23;20178;-80